sensor_id;sensor_type;location;lat;lon;timestamp;P1;durP1;ratioP1;P2;durP2;ratioP2
12334;SDS011;6233;51.560;9.986;2023-04-16T00:01:35;62.87;;;42.87;;
12334;SDS011;6233;51.560;9.986;2023-04-16T00:04:37;60.87;;;43.00;;
12334;SDS011;6233;51.560;9.986;2023-04-16T00:07:39;58.30;;;42.30;;
12334;SDS011;6233;51.560;9.986;2023-04-16T00:10:41;59.43;;;42.23;;
12334;SDS011;6233;51.560;9.986;2023-04-16T00:13:42;62.80;;;43.50;;
12334;SDS011;6233;51.560;9.986;2023-04-16T00:16:44;62.40;;;41.47;;
12334;SDS011;6233;51.560;9.986;2023-04-16T00:19:46;59.20;;;41.47;;
12334;SDS011;6233;51.560;9.986;2023-04-16T00:22:49;61.33;;;41.50;;
12334;SDS011;6233;51.560;9.986;2023-04-16T00:25:51;55.90;;;40.33;;
12334;SDS011;6233;51.560;9.986;2023-04-16T00:28:54;57.43;;;41.57;;
12334;SDS011;6233;51.560;9.986;2023-04-16T00:31:55;55.57;;;40.50;;
12334;SDS011;6233;51.560;9.986;2023-04-16T00:34:57;56.70;;;40.60;;
12334;SDS011;6233;51.560;9.986;2023-04-16T00:37:59;61.00;;;40.97;;
12334;SDS011;6233;51.560;9.986;2023-04-16T00:41:01;59.23;;;41.93;;
12334;SDS011;6233;51.560;9.986;2023-04-16T00:44:02;59.37;;;40.23;;
12334;SDS011;6233;51.560;9.986;2023-04-16T00:47:04;56.53;;;40.60;;
12334;SDS011;6233;51.560;9.986;2023-04-16T00:50:08;60.37;;;41.53;;
12334;SDS011;6233;51.560;9.986;2023-04-16T00:53:12;60.00;;;41.37;;
12334;SDS011;6233;51.560;9.986;2023-04-16T00:56:14;56.47;;;40.00;;
12334;SDS011;6233;51.560;9.986;2023-04-16T00:59:18;56.07;;;40.53;;
12334;SDS011;6233;51.560;9.986;2023-04-16T01:02:20;57.90;;;40.70;;
12334;SDS011;6233;51.560;9.986;2023-04-16T01:05:21;54.30;;;38.87;;
12334;SDS011;6233;51.560;9.986;2023-04-16T01:08:23;50.57;;;38.43;;
12334;SDS011;6233;51.560;9.986;2023-04-16T01:11:25;52.30;;;37.83;;
12334;SDS011;6233;51.560;9.986;2023-04-16T01:14:27;53.20;;;36.93;;
12334;SDS011;6233;51.560;9.986;2023-04-16T01:17:29;49.37;;;37.90;;
12334;SDS011;6233;51.560;9.986;2023-04-16T01:20:34;47.57;;;34.70;;
12334;SDS011;6233;51.560;9.986;2023-04-16T01:23:36;46.13;;;33.93;;
12334;SDS011;6233;51.560;9.986;2023-04-16T01:26:37;49.40;;;34.97;;
12334;SDS011;6233;51.560;9.986;2023-04-16T01:29:39;50.13;;;35.60;;
12334;SDS011;6233;51.560;9.986;2023-04-16T01:32:41;50.10;;;35.90;;
12334;SDS011;6233;51.560;9.986;2023-04-16T01:35:43;46.17;;;34.40;;
12334;SDS011;6233;51.560;9.986;2023-04-16T01:38:45;47.23;;;34.17;;
12334;SDS011;6233;51.560;9.986;2023-04-16T01:41:46;44.80;;;32.53;;
12334;SDS011;6233;51.560;9.986;2023-04-16T01:44:48;44.10;;;33.20;;
12334;SDS011;6233;51.560;9.986;2023-04-16T01:47:50;45.67;;;32.97;;
12334;SDS011;6233;51.560;9.986;2023-04-16T01:50:52;46.97;;;32.60;;
12334;SDS011;6233;51.560;9.986;2023-04-16T01:53:54;45.17;;;31.80;;
12334;SDS011;6233;51.560;9.986;2023-04-16T01:56:56;47.13;;;33.17;;
12334;SDS011;6233;51.560;9.986;2023-04-16T01:59:58;48.17;;;33.53;;
12334;SDS011;6233;51.560;9.986;2023-04-16T02:02:59;48.27;;;35.00;;
12334;SDS011;6233;51.560;9.986;2023-04-16T02:06:01;51.40;;;35.83;;
12334;SDS011;6233;51.560;9.986;2023-04-16T02:09:03;48.90;;;35.17;;
12334;SDS011;6233;51.560;9.986;2023-04-16T02:12:05;50.77;;;35.00;;
12334;SDS011;6233;51.560;9.986;2023-04-16T02:15:08;52.27;;;36.20;;
12334;SDS011;6233;51.560;9.986;2023-04-16T02:18:10;48.47;;;35.07;;
12334;SDS011;6233;51.560;9.986;2023-04-16T02:21:11;46.13;;;32.57;;
12334;SDS011;6233;51.560;9.986;2023-04-16T02:24:14;45.37;;;32.23;;
12334;SDS011;6233;51.560;9.986;2023-04-16T02:27:15;47.67;;;32.67;;
12334;SDS011;6233;51.560;9.986;2023-04-16T02:30:17;45.47;;;31.47;;
12334;SDS011;6233;51.560;9.986;2023-04-16T02:33:19;41.33;;;29.73;;
12334;SDS011;6233;51.560;9.986;2023-04-16T02:36:21;41.03;;;30.20;;
12334;SDS011;6233;51.560;9.986;2023-04-16T02:39:23;40.67;;;29.57;;
12334;SDS011;6233;51.560;9.986;2023-04-16T02:42:25;38.90;;;29.37;;
12334;SDS011;6233;51.560;9.986;2023-04-16T02:45:26;38.90;;;28.23;;
12334;SDS011;6233;51.560;9.986;2023-04-16T02:48:28;37.33;;;28.30;;
12334;SDS011;6233;51.560;9.986;2023-04-16T02:51:30;39.50;;;28.70;;
12334;SDS011;6233;51.560;9.986;2023-04-16T02:54:33;36.77;;;27.17;;
12334;SDS011;6233;51.560;9.986;2023-04-16T02:57:35;39.37;;;29.23;;
12334;SDS011;6233;51.560;9.986;2023-04-16T03:00:36;42.70;;;31.03;;
12334;SDS011;6233;51.560;9.986;2023-04-16T03:03:38;45.37;;;32.70;;
12334;SDS011;6233;51.560;9.986;2023-04-16T03:06:40;44.07;;;31.90;;
12334;SDS011;6233;51.560;9.986;2023-04-16T03:09:42;44.43;;;32.43;;
12334;SDS011;6233;51.560;9.986;2023-04-16T03:12:44;47.90;;;33.67;;
12334;SDS011;6233;51.560;9.986;2023-04-16T03:15:48;47.63;;;33.70;;
12334;SDS011;6233;51.560;9.986;2023-04-16T03:18:50;50.87;;;34.90;;
12334;SDS011;6233;51.560;9.986;2023-04-16T03:21:52;51.80;;;35.03;;
12334;SDS011;6233;51.560;9.986;2023-04-16T03:24:54;49.97;;;35.33;;
12334;SDS011;6233;51.560;9.986;2023-04-16T03:27:56;52.17;;;35.83;;
12334;SDS011;6233;51.560;9.986;2023-04-16T03:30:57;52.00;;;36.30;;
12334;SDS011;6233;51.560;9.986;2023-04-16T03:33:59;53.60;;;37.87;;
12334;SDS011;6233;51.560;9.986;2023-04-16T03:37:01;58.70;;;38.73;;
12334;SDS011;6233;51.560;9.986;2023-04-16T03:40:03;62.47;;;40.60;;
12334;SDS011;6233;51.560;9.986;2023-04-16T03:43:08;65.53;;;41.83;;
12334;SDS011;6233;51.560;9.986;2023-04-16T03:46:10;68.40;;;44.67;;
12334;SDS011;6233;51.560;9.986;2023-04-16T03:49:12;69.00;;;44.50;;
12334;SDS011;6233;51.560;9.986;2023-04-16T03:52:13;69.27;;;45.37;;
12334;SDS011;6233;51.560;9.986;2023-04-16T03:55:15;77.07;;;47.87;;
12334;SDS011;6233;51.560;9.986;2023-04-16T03:58:17;74.27;;;46.53;;
12334;SDS011;6233;51.560;9.986;2023-04-16T04:01:20;72.30;;;46.00;;
12334;SDS011;6233;51.560;9.986;2023-04-16T04:04:21;73.17;;;46.43;;
12334;SDS011;6233;51.560;9.986;2023-04-16T04:07:23;66.53;;;44.37;;
12334;SDS011;6233;51.560;9.986;2023-04-16T04:10:25;70.33;;;43.43;;
12334;SDS011;6233;51.560;9.986;2023-04-16T04:13:27;70.70;;;43.77;;
12334;SDS011;6233;51.560;9.986;2023-04-16T04:16:29;68.30;;;43.10;;
12334;SDS011;6233;51.560;9.986;2023-04-16T04:19:31;69.13;;;43.57;;
12334;SDS011;6233;51.560;9.986;2023-04-16T04:22:33;67.50;;;43.37;;
12334;SDS011;6233;51.560;9.986;2023-04-16T04:25:35;61.70;;;41.60;;
12334;SDS011;6233;51.560;9.986;2023-04-16T04:28:36;62.97;;;40.87;;
12334;SDS011;6233;51.560;9.986;2023-04-16T04:31:38;68.83;;;43.17;;
12334;SDS011;6233;51.560;9.986;2023-04-16T04:34:41;65.40;;;40.80;;
12334;SDS011;6233;51.560;9.986;2023-04-16T04:37:42;58.30;;;38.40;;
12334;SDS011;6233;51.560;9.986;2023-04-16T04:40:44;65.60;;;42.47;;
12334;SDS011;6233;51.560;9.986;2023-04-16T04:43:46;65.77;;;42.93;;
12334;SDS011;6233;51.560;9.986;2023-04-16T04:46:48;63.67;;;40.73;;
12334;SDS011;6233;51.560;9.986;2023-04-16T04:49:50;64.97;;;42.50;;
12334;SDS011;6233;51.560;9.986;2023-04-16T04:52:52;63.77;;;41.80;;
12334;SDS011;6233;51.560;9.986;2023-04-16T04:55:54;68.27;;;43.40;;
12334;SDS011;6233;51.560;9.986;2023-04-16T04:59:09;68.87;;;41.43;;
12334;SDS011;6233;51.560;9.986;2023-04-16T05:02:11;69.97;;;43.40;;
12334;SDS011;6233;51.560;9.986;2023-04-16T05:05:14;71.57;;;44.10;;
12334;SDS011;6233;51.560;9.986;2023-04-16T05:08:15;64.00;;;42.73;;
12334;SDS011;6233;51.560;9.986;2023-04-16T05:11:17;70.47;;;42.73;;
12334;SDS011;6233;51.560;9.986;2023-04-16T05:14:19;72.90;;;43.60;;
12334;SDS011;6233;51.560;9.986;2023-04-16T05:17:21;67.80;;;41.83;;
12334;SDS011;6233;51.560;9.986;2023-04-16T05:20:23;72.23;;;44.87;;
12334;SDS011;6233;51.560;9.986;2023-04-16T05:23:24;77.73;;;44.47;;
12334;SDS011;6233;51.560;9.986;2023-04-16T05:26:26;70.57;;;44.40;;
12334;SDS011;6233;51.560;9.986;2023-04-16T05:29:28;77.57;;;43.53;;
12334;SDS011;6233;51.560;9.986;2023-04-16T05:32:30;72.87;;;43.77;;
12334;SDS011;6233;51.560;9.986;2023-04-16T05:35:31;72.37;;;42.47;;
12334;SDS011;6233;51.560;9.986;2023-04-16T05:38:34;77.57;;;46.17;;
12334;SDS011;6233;51.560;9.986;2023-04-16T05:41:36;76.53;;;44.43;;
12334;SDS011;6233;51.560;9.986;2023-04-16T05:44:38;73.67;;;43.97;;
12334;SDS011;6233;51.560;9.986;2023-04-16T05:47:40;90.07;;;45.13;;
12334;SDS011;6233;51.560;9.986;2023-04-16T05:50:42;76.13;;;43.93;;
12334;SDS011;6233;51.560;9.986;2023-04-16T05:53:44;75.20;;;45.37;;
12334;SDS011;6233;51.560;9.986;2023-04-16T05:56:46;75.97;;;44.90;;
12334;SDS011;6233;51.560;9.986;2023-04-16T05:59:47;82.00;;;44.47;;
12334;SDS011;6233;51.560;9.986;2023-04-16T06:02:49;75.40;;;44.70;;
12334;SDS011;6233;51.560;9.986;2023-04-16T06:05:51;71.47;;;42.97;;
12334;SDS011;6233;51.560;9.986;2023-04-16T06:08:53;78.43;;;43.47;;
12334;SDS011;6233;51.560;9.986;2023-04-16T06:11:55;77.73;;;44.03;;
12334;SDS011;6233;51.560;9.986;2023-04-16T06:15:16;99.00;;;45.97;;
12334;SDS011;6233;51.560;9.986;2023-04-16T06:18:18;76.20;;;42.87;;
12334;SDS011;6233;51.560;9.986;2023-04-16T06:21:20;77.63;;;43.83;;
12334;SDS011;6233;51.560;9.986;2023-04-16T06:24:22;71.40;;;42.70;;
12334;SDS011;6233;51.560;9.986;2023-04-16T06:27:23;74.00;;;44.40;;
12334;SDS011;6233;51.560;9.986;2023-04-16T06:30:26;72.57;;;42.63;;
12334;SDS011;6233;51.560;9.986;2023-04-16T06:33:27;75.83;;;43.67;;
12334;SDS011;6233;51.560;9.986;2023-04-16T06:36:29;69.20;;;41.70;;
12334;SDS011;6233;51.560;9.986;2023-04-16T06:39:31;70.43;;;42.80;;
12334;SDS011;6233;51.560;9.986;2023-04-16T06:42:33;70.30;;;42.73;;
12334;SDS011;6233;51.560;9.986;2023-04-16T06:45:43;67.97;;;41.63;;
12334;SDS011;6233;51.560;9.986;2023-04-16T06:48:45;77.17;;;40.87;;
12334;SDS011;6233;51.560;9.986;2023-04-16T06:51:50;75.53;;;41.50;;
12334;SDS011;6233;51.560;9.986;2023-04-16T06:54:51;66.53;;;39.17;;
12334;SDS011;6233;51.560;9.986;2023-04-16T06:57:53;67.27;;;41.40;;
12334;SDS011;6233;51.560;9.986;2023-04-16T07:00:55;71.17;;;41.00;;
12334;SDS011;6233;51.560;9.986;2023-04-16T07:03:57;69.60;;;40.40;;
12334;SDS011;6233;51.560;9.986;2023-04-16T07:06:59;63.53;;;38.83;;
12334;SDS011;6233;51.560;9.986;2023-04-16T07:10:02;62.93;;;37.33;;
12334;SDS011;6233;51.560;9.986;2023-04-16T07:13:05;65.50;;;36.93;;
12334;SDS011;6233;51.560;9.986;2023-04-16T07:16:07;80.17;;;38.00;;
12334;SDS011;6233;51.560;9.986;2023-04-16T07:19:09;59.43;;;37.03;;
12334;SDS011;6233;51.560;9.986;2023-04-16T07:22:12;58.93;;;34.47;;
12334;SDS011;6233;51.560;9.986;2023-04-16T07:25:22;62.77;;;34.80;;
12334;SDS011;6233;51.560;9.986;2023-04-16T07:28:23;57.03;;;33.93;;
12334;SDS011;6233;51.560;9.986;2023-04-16T07:31:26;53.07;;;33.60;;
12334;SDS011;6233;51.560;9.986;2023-04-16T07:34:31;52.30;;;31.80;;
12334;SDS011;6233;51.560;9.986;2023-04-16T07:37:32;45.33;;;30.67;;
12334;SDS011;6233;51.560;9.986;2023-04-16T07:40:35;45.33;;;29.10;;
12334;SDS011;6233;51.560;9.986;2023-04-16T07:43:37;46.10;;;29.10;;
12334;SDS011;6233;51.560;9.986;2023-04-16T07:46:39;46.87;;;29.60;;
12334;SDS011;6233;51.560;9.986;2023-04-16T07:49:53;48.73;;;29.90;;
12334;SDS011;6233;51.560;9.986;2023-04-16T07:52:55;45.43;;;28.40;;
12334;SDS011;6233;51.560;9.986;2023-04-16T07:55:56;43.20;;;28.30;;
12334;SDS011;6233;51.560;9.986;2023-04-16T07:58:58;45.37;;;28.40;;
12334;SDS011;6233;51.560;9.986;2023-04-16T08:02:19;44.33;;;28.13;;
12334;SDS011;6233;51.560;9.986;2023-04-16T08:05:21;43.17;;;28.63;;
12334;SDS011;6233;51.560;9.986;2023-04-16T08:08:23;41.60;;;27.50;;
12334;SDS011;6233;51.560;9.986;2023-04-16T08:11:24;40.70;;;28.13;;
12334;SDS011;6233;51.560;9.986;2023-04-16T08:14:26;44.10;;;27.13;;
12334;SDS011;6233;51.560;9.986;2023-04-16T08:17:28;41.37;;;26.60;;
12334;SDS011;6233;51.560;9.986;2023-04-16T08:20:30;42.50;;;27.00;;
12334;SDS011;6233;51.560;9.986;2023-04-16T08:23:32;38.50;;;25.20;;
12334;SDS011;6233;51.560;9.986;2023-04-16T08:26:34;39.90;;;25.80;;
12334;SDS011;6233;51.560;9.986;2023-04-16T08:29:36;37.23;;;24.67;;
12334;SDS011;6233;51.560;9.986;2023-04-16T08:32:38;37.50;;;25.40;;
12334;SDS011;6233;51.560;9.986;2023-04-16T08:35:40;39.77;;;25.10;;
12334;SDS011;6233;51.560;9.986;2023-04-16T08:38:41;37.27;;;24.60;;
12334;SDS011;6233;51.560;9.986;2023-04-16T08:41:44;34.90;;;24.60;;
12334;SDS011;6233;51.560;9.986;2023-04-16T08:44:47;39.27;;;25.90;;
12334;SDS011;6233;51.560;9.986;2023-04-16T08:47:53;38.47;;;26.27;;
12334;SDS011;6233;51.560;9.986;2023-04-16T08:50:54;35.17;;;24.97;;
12334;SDS011;6233;51.560;9.986;2023-04-16T08:54:45;36.20;;;23.87;;
12334;SDS011;6233;51.560;9.986;2023-04-16T08:57:29;38.33;;;26.50;;
12334;SDS011;6233;51.560;9.986;2023-04-16T09:00:36;36.20;;;24.53;;
12334;SDS011;6233;51.560;9.986;2023-04-16T09:03:39;36.00;;;24.43;;
12334;SDS011;6233;51.560;9.986;2023-04-16T09:06:42;38.00;;;24.73;;
12334;SDS011;6233;51.560;9.986;2023-04-16T09:09:44;37.63;;;25.33;;
12334;SDS011;6233;51.560;9.986;2023-04-16T09:12:48;40.73;;;26.73;;
12334;SDS011;6233;51.560;9.986;2023-04-16T09:15:53;40.93;;;27.10;;
12334;SDS011;6233;51.560;9.986;2023-04-16T09:18:57;43.37;;;27.63;;
12334;SDS011;6233;51.560;9.986;2023-04-16T09:21:59;42.17;;;27.70;;
12334;SDS011;6233;51.560;9.986;2023-04-16T09:25:00;40.50;;;28.23;;
12334;SDS011;6233;51.560;9.986;2023-04-16T09:28:02;39.30;;;26.17;;
12334;SDS011;6233;51.560;9.986;2023-04-16T09:31:14;41.07;;;27.30;;
12334;SDS011;6233;51.560;9.986;2023-04-16T09:34:17;39.60;;;26.50;;
12334;SDS011;6233;51.560;9.986;2023-04-16T09:37:19;38.10;;;25.40;;
12334;SDS011;6233;51.560;9.986;2023-04-16T09:40:24;35.73;;;25.57;;
12334;SDS011;6233;51.560;9.986;2023-04-16T09:43:27;37.47;;;24.37;;
12334;SDS011;6233;51.560;9.986;2023-04-16T09:46:41;40.37;;;25.77;;
12334;SDS011;6233;51.560;9.986;2023-04-16T09:49:43;34.43;;;23.40;;
12334;SDS011;6233;51.560;9.986;2023-04-16T09:52:49;33.03;;;23.53;;
12334;SDS011;6233;51.560;9.986;2023-04-16T09:55:54;31.93;;;23.70;;
12334;SDS011;6233;51.560;9.986;2023-04-16T09:59:00;35.33;;;24.33;;
12334;SDS011;6233;51.560;9.986;2023-04-16T10:02:02;41.30;;;27.17;;
12334;SDS011;6233;51.560;9.986;2023-04-16T10:05:25;39.30;;;26.03;;
12334;SDS011;6233;51.560;9.986;2023-04-16T10:08:26;40.13;;;27.60;;
12334;SDS011;6233;51.560;9.986;2023-04-16T10:11:29;41.43;;;27.50;;
12334;SDS011;6233;51.560;9.986;2023-04-16T10:14:31;41.90;;;28.20;;
12334;SDS011;6233;51.560;9.986;2023-04-16T10:17:36;45.03;;;29.47;;
12334;SDS011;6233;51.560;9.986;2023-04-16T10:20:39;49.13;;;31.40;;
12334;SDS011;6233;51.560;9.986;2023-04-16T10:23:41;47.80;;;31.83;;
12334;SDS011;6233;51.560;9.986;2023-04-16T10:26:43;44.73;;;31.03;;
12334;SDS011;6233;51.560;9.986;2023-04-16T10:29:47;46.37;;;31.27;;
12334;SDS011;6233;51.560;9.986;2023-04-16T10:32:49;52.43;;;33.23;;
12334;SDS011;6233;51.560;9.986;2023-04-16T10:35:52;50.97;;;33.90;;
12334;SDS011;6233;51.560;9.986;2023-04-16T10:39:18;53.93;;;35.33;;
12334;SDS011;6233;51.560;9.986;2023-04-16T10:42:22;56.83;;;35.43;;
12334;SDS011;6233;51.560;9.986;2023-04-16T10:45:30;56.47;;;36.20;;
12334;SDS011;6233;51.560;9.986;2023-04-16T10:48:37;51.47;;;34.83;;
12334;SDS011;6233;51.560;9.986;2023-04-16T10:52:00;51.47;;;34.30;;
12334;SDS011;6233;51.560;9.986;2023-04-16T10:55:14;58.20;;;36.77;;
12334;SDS011;6233;51.560;9.986;2023-04-16T10:58:30;57.33;;;37.93;;
12334;SDS011;6233;51.560;9.986;2023-04-16T11:01:35;58.00;;;36.73;;
12334;SDS011;6233;51.560;9.986;2023-04-16T11:04:41;59.87;;;37.50;;
12334;SDS011;6233;51.560;9.986;2023-04-16T11:07:46;58.40;;;37.03;;
12334;SDS011;6233;51.560;9.986;2023-04-16T11:10:50;55.67;;;36.03;;
12334;SDS011;6233;51.560;9.986;2023-04-16T11:13:53;58.53;;;37.03;;
12334;SDS011;6233;51.560;9.986;2023-04-16T11:16:57;53.83;;;36.17;;
12334;SDS011;6233;51.560;9.986;2023-04-16T11:19:58;62.03;;;39.60;;
12334;SDS011;6233;51.560;9.986;2023-04-16T11:23:01;53.93;;;35.43;;
12334;SDS011;6233;51.560;9.986;2023-04-16T11:26:02;55.40;;;36.20;;
12334;SDS011;6233;51.560;9.986;2023-04-16T11:29:10;56.40;;;37.10;;
12334;SDS011;6233;51.560;9.986;2023-04-16T11:32:21;57.20;;;36.20;;
12334;SDS011;6233;51.560;9.986;2023-04-16T11:35:23;55.63;;;35.97;;
12334;SDS011;6233;51.560;9.986;2023-04-16T11:38:37;53.47;;;35.00;;
12334;SDS011;6233;51.560;9.986;2023-04-16T11:41:44;50.77;;;34.00;;
12334;SDS011;6233;51.560;9.986;2023-04-16T11:44:51;50.27;;;32.17;;
12334;SDS011;6233;51.560;9.986;2023-04-16T11:47:54;49.83;;;33.60;;
12334;SDS011;6233;51.560;9.986;2023-04-16T11:50:58;49.83;;;33.23;;
12334;SDS011;6233;51.560;9.986;2023-04-16T11:54:00;52.57;;;33.03;;
12334;SDS011;6233;51.560;9.986;2023-04-16T11:57:02;48.67;;;32.70;;
12334;SDS011;6233;51.560;9.986;2023-04-16T12:00:07;46.47;;;32.23;;
12334;SDS011;6233;51.560;9.986;2023-04-16T12:03:14;44.17;;;31.60;;
12334;SDS011;6233;51.560;9.986;2023-04-16T12:06:16;45.67;;;32.00;;
12334;SDS011;6233;51.560;9.986;2023-04-16T12:09:24;45.80;;;29.20;;
12334;SDS011;6233;51.560;9.986;2023-04-16T12:12:28;47.03;;;31.10;;
12334;SDS011;6233;51.560;9.986;2023-04-16T12:15:42;48.23;;;30.70;;
12334;SDS011;6233;51.560;9.986;2023-04-16T12:18:58;42.60;;;29.60;;
12334;SDS011;6233;51.560;9.986;2023-04-16T12:22:01;46.10;;;30.47;;
12334;SDS011;6233;51.560;9.986;2023-04-16T12:25:07;46.20;;;31.87;;
12334;SDS011;6233;51.560;9.986;2023-04-16T12:28:12;44.37;;;32.13;;
12334;SDS011;6233;51.560;9.986;2023-04-16T12:31:13;48.90;;;34.37;;
12334;SDS011;6233;51.560;9.986;2023-04-16T12:34:16;52.63;;;35.67;;
12334;SDS011;6233;51.560;9.986;2023-04-16T12:37:18;50.17;;;34.23;;
12334;SDS011;6233;51.560;9.986;2023-04-16T12:40:20;48.33;;;32.93;;
12334;SDS011;6233;51.560;9.986;2023-04-16T12:43:22;44.53;;;31.83;;
12334;SDS011;6233;51.560;9.986;2023-04-16T12:46:25;42.97;;;30.57;;
12334;SDS011;6233;51.560;9.986;2023-04-16T12:49:27;45.70;;;30.47;;
12334;SDS011;6233;51.560;9.986;2023-04-16T12:52:28;40.60;;;29.43;;
12334;SDS011;6233;51.560;9.986;2023-04-16T12:58:55;44.53;;;29.53;;
12334;SDS011;6233;51.560;9.986;2023-04-16T13:01:57;46.00;;;30.07;;
12334;SDS011;6233;51.560;9.986;2023-04-16T13:05:01;40.83;;;30.07;;
12334;SDS011;6233;51.560;9.986;2023-04-16T13:12:31;39.60;;;27.93;;
12334;SDS011;6233;51.560;9.986;2023-04-16T13:15:33;35.57;;;25.73;;
12334;SDS011;6233;51.560;9.986;2023-04-16T13:18:34;32.07;;;23.30;;
12334;SDS011;6233;51.560;9.986;2023-04-16T13:21:37;31.40;;;23.03;;
12334;SDS011;6233;51.560;9.986;2023-04-16T13:24:39;32.40;;;23.60;;
12334;SDS011;6233;51.560;9.986;2023-04-16T13:27:40;33.63;;;24.60;;
12334;SDS011;6233;51.560;9.986;2023-04-16T13:30:42;34.43;;;24.57;;
12334;SDS011;6233;51.560;9.986;2023-04-16T13:33:45;34.87;;;25.07;;
12334;SDS011;6233;51.560;9.986;2023-04-16T13:36:47;32.23;;;24.27;;
12334;SDS011;6233;51.560;9.986;2023-04-16T13:39:49;31.53;;;25.00;;
12334;SDS011;6233;51.560;9.986;2023-04-16T13:42:51;30.07;;;23.03;;
12334;SDS011;6233;51.560;9.986;2023-04-16T13:45:53;29.77;;;22.20;;
12334;SDS011;6233;51.560;9.986;2023-04-16T13:48:54;28.60;;;22.00;;
12334;SDS011;6233;51.560;9.986;2023-04-16T13:51:56;34.27;;;22.73;;
12334;SDS011;6233;51.560;9.986;2023-04-16T13:54:58;32.77;;;23.50;;
12334;SDS011;6233;51.560;9.986;2023-04-16T13:58:00;30.47;;;23.37;;
12334;SDS011;6233;51.560;9.986;2023-04-16T14:01:03;32.73;;;23.63;;
12334;SDS011;6233;51.560;9.986;2023-04-16T14:04:05;34.57;;;24.33;;
12334;SDS011;6233;51.560;9.986;2023-04-16T14:07:07;34.60;;;25.20;;
12334;SDS011;6233;51.560;9.986;2023-04-16T14:10:09;31.43;;;23.07;;
12334;SDS011;6233;51.560;9.986;2023-04-16T14:13:11;32.03;;;24.17;;
12334;SDS011;6233;51.560;9.986;2023-04-16T14:16:15;31.93;;;23.63;;
12334;SDS011;6233;51.560;9.986;2023-04-16T14:19:17;31.27;;;23.13;;
12334;SDS011;6233;51.560;9.986;2023-04-16T14:22:19;28.47;;;21.57;;
12334;SDS011;6233;51.560;9.986;2023-04-16T14:25:21;29.60;;;22.93;;
12334;SDS011;6233;51.560;9.986;2023-04-16T14:32:46;30.93;;;23.00;;
12334;SDS011;6233;51.560;9.986;2023-04-16T14:35:48;30.50;;;23.00;;
12334;SDS011;6233;51.560;9.986;2023-04-16T14:38:51;28.37;;;22.27;;
12334;SDS011;6233;51.560;9.986;2023-04-16T14:41:53;31.47;;;23.67;;
12334;SDS011;6233;51.560;9.986;2023-04-16T14:44:55;29.60;;;21.77;;
12334;SDS011;6233;51.560;9.986;2023-04-16T14:47:57;30.33;;;22.00;;
12334;SDS011;6233;51.560;9.986;2023-04-16T14:50:58;27.57;;;21.20;;
12334;SDS011;6233;51.560;9.986;2023-04-16T14:54:00;25.80;;;21.43;;
12334;SDS011;6233;51.560;9.986;2023-04-16T14:57:03;27.47;;;20.70;;
12334;SDS011;6233;51.560;9.986;2023-04-16T15:00:05;27.43;;;21.70;;
12334;SDS011;6233;51.560;9.986;2023-04-16T15:03:09;29.93;;;22.50;;
12334;SDS011;6233;51.560;9.986;2023-04-16T15:06:11;30.00;;;23.23;;
12334;SDS011;6233;51.560;9.986;2023-04-16T15:09:14;31.13;;;23.10;;
12334;SDS011;6233;51.560;9.986;2023-04-16T15:12:16;28.17;;;21.67;;
12334;SDS011;6233;51.560;9.986;2023-04-16T15:15:19;26.23;;;21.03;;
12334;SDS011;6233;51.560;9.986;2023-04-16T15:18:21;23.90;;;19.67;;
12334;SDS011;6233;51.560;9.986;2023-04-16T15:21:24;24.03;;;18.90;;
12334;SDS011;6233;51.560;9.986;2023-04-16T15:24:26;23.93;;;18.70;;
12334;SDS011;6233;51.560;9.986;2023-04-16T15:27:28;24.60;;;19.57;;
12334;SDS011;6233;51.560;9.986;2023-04-16T15:30:30;22.97;;;18.73;;
12334;SDS011;6233;51.560;9.986;2023-04-16T15:33:31;22.67;;;18.70;;
12334;SDS011;6233;51.560;9.986;2023-04-16T15:36:33;23.20;;;19.43;;
12334;SDS011;6233;51.560;9.986;2023-04-16T15:39:35;22.07;;;17.97;;
12334;SDS011;6233;51.560;9.986;2023-04-16T15:42:37;25.87;;;19.20;;
12334;SDS011;6233;51.560;9.986;2023-04-16T15:45:49;23.63;;;18.93;;
12334;SDS011;6233;51.560;9.986;2023-04-16T15:48:51;23.67;;;19.27;;
12334;SDS011;6233;51.560;9.986;2023-04-16T15:51:53;24.83;;;19.87;;
12334;SDS011;6233;51.560;9.986;2023-04-16T15:54:55;26.10;;;20.00;;
12334;SDS011;6233;51.560;9.986;2023-04-16T15:57:58;22.30;;;18.60;;
12334;SDS011;6233;51.560;9.986;2023-04-16T16:00:59;25.33;;;20.63;;
12334;SDS011;6233;51.560;9.986;2023-04-16T16:04:01;27.00;;;20.57;;
12334;SDS011;6233;51.560;9.986;2023-04-16T16:07:03;22.60;;;18.97;;
12334;SDS011;6233;51.560;9.986;2023-04-16T16:10:06;24.47;;;19.50;;
12334;SDS011;6233;51.560;9.986;2023-04-16T16:13:09;24.93;;;19.73;;
12334;SDS011;6233;51.560;9.986;2023-04-16T16:16:14;24.93;;;19.70;;
12334;SDS011;6233;51.560;9.986;2023-04-16T16:19:16;24.70;;;19.67;;
12334;SDS011;6233;51.560;9.986;2023-04-16T16:22:18;25.30;;;19.10;;
12334;SDS011;6233;51.560;9.986;2023-04-16T16:25:20;24.83;;;19.13;;
12334;SDS011;6233;51.560;9.986;2023-04-16T16:28:23;24.97;;;19.90;;
12334;SDS011;6233;51.560;9.986;2023-04-16T16:31:25;22.10;;;18.00;;
12334;SDS011;6233;51.560;9.986;2023-04-16T16:34:27;23.23;;;18.83;;
12334;SDS011;6233;51.560;9.986;2023-04-16T16:37:29;24.47;;;19.33;;
12334;SDS011;6233;51.560;9.986;2023-04-16T16:40:30;23.97;;;19.93;;
12334;SDS011;6233;51.560;9.986;2023-04-16T16:43:33;22.63;;;18.80;;
12334;SDS011;6233;51.560;9.986;2023-04-16T16:46:36;23.63;;;19.17;;
12334;SDS011;6233;51.560;9.986;2023-04-16T16:49:38;23.80;;;18.90;;
12334;SDS011;6233;51.560;9.986;2023-04-16T16:52:40;24.13;;;19.43;;
12334;SDS011;6233;51.560;9.986;2023-04-16T16:55:42;23.93;;;20.17;;
12334;SDS011;6233;51.560;9.986;2023-04-16T16:58:43;25.77;;;20.00;;
12334;SDS011;6233;51.560;9.986;2023-04-16T17:01:45;25.60;;;20.60;;
12334;SDS011;6233;51.560;9.986;2023-04-16T17:04:47;22.70;;;19.27;;
12334;SDS011;6233;51.560;9.986;2023-04-16T17:07:49;24.27;;;19.20;;
12334;SDS011;6233;51.560;9.986;2023-04-16T17:10:51;25.00;;;21.47;;
12334;SDS011;6233;51.560;9.986;2023-04-16T17:13:53;27.30;;;21.73;;
12334;SDS011;6233;51.560;9.986;2023-04-16T17:17:01;28.37;;;22.50;;
12334;SDS011;6233;51.560;9.986;2023-04-16T17:20:04;30.17;;;23.67;;
12334;SDS011;6233;51.560;9.986;2023-04-16T17:23:10;31.27;;;24.53;;
12334;SDS011;6233;51.560;9.986;2023-04-16T17:26:12;27.37;;;22.47;;
12334;SDS011;6233;51.560;9.986;2023-04-16T17:29:13;32.00;;;24.53;;
12334;SDS011;6233;51.560;9.986;2023-04-16T17:32:15;29.00;;;23.50;;
12334;SDS011;6233;51.560;9.986;2023-04-16T17:35:17;29.80;;;24.23;;
12334;SDS011;6233;51.560;9.986;2023-04-16T17:38:19;28.87;;;24.23;;
12334;SDS011;6233;51.560;9.986;2023-04-16T17:41:21;32.70;;;25.40;;
12334;SDS011;6233;51.560;9.986;2023-04-16T17:44:23;33.03;;;25.43;;
12334;SDS011;6233;51.560;9.986;2023-04-16T17:47:37;32.07;;;25.70;;
12334;SDS011;6233;51.560;9.986;2023-04-16T17:50:39;33.73;;;25.50;;
12334;SDS011;6233;51.560;9.986;2023-04-16T17:53:41;31.50;;;25.10;;
12334;SDS011;6233;51.560;9.986;2023-04-16T17:56:43;31.23;;;24.93;;
12334;SDS011;6233;51.560;9.986;2023-04-16T17:59:46;31.00;;;23.63;;
12334;SDS011;6233;51.560;9.986;2023-04-16T18:02:49;32.37;;;24.00;;
12334;SDS011;6233;51.560;9.986;2023-04-16T18:05:52;32.80;;;25.57;;
12334;SDS011;6233;51.560;9.986;2023-04-16T18:08:54;31.40;;;24.73;;
12334;SDS011;6233;51.560;9.986;2023-04-16T18:11:56;33.33;;;26.13;;
12334;SDS011;6233;51.560;9.986;2023-04-16T18:14:58;35.17;;;28.10;;
12334;SDS011;6233;51.560;9.986;2023-04-16T18:18:00;41.23;;;31.10;;